Main page
METAR-TAF:

METAR-TAF

Airports :

Tangier Ibn Battouta Airport

Tangier, Morocco

latitude: 35-44N, longitude: 005-54W, elevation: 19 m

Current weather observation

The report was made 2 hours and 5 minutes ago, at 04:00 UTC
Wind 11 kt from the East
Temperature 20°C
Humidity 68%
Pressure 1022 hPa
Visibility: 8000 m
Few clouds at a height of 1600 ft

METAR: GMTT 240400Z 09011KT 8000 FEW016 20/14 Q1022 NOSIG

Time: 07:05 (06:05 UTC)

Forecast

The report was made 7 hours and 5 minutes ago, at 23:00 UTC
Forecast valid from 24 at 00 UTC to 25 at 06 UTC
Wind 12 kt from the East
Visibility: 8000 m
Scattered clouds at a height of 1600 ft
Probability 40% :
Temporary
from 24 at 07 UTC to 24 at 18 UTC
Wind 15 kt from the East with gusts up to 25 kt

TAF: GMTT 232300Z 2400/2506 10012KT 8000 SCT016 PROB40 TEMPO 2407/2418 10015G25KT

Weather observations and forecasts of more than 4000 airports (METAR and TAF reports).

The available stations are represented by yellow and red dots on the map.

Hover mouse over dot to see the name of the station.

Then click to see weather observations and forecasts.

To change the map : click on the green buttons with a black cross to zoom in, on the green button with a dash to zoom out, or on the green arrows for adjacent maps.


METAR-TAF: